Latest Weather Observations for Cowra

IDN60801

Issued at 8:03 pm EST Tuesday 26 July 2016 (issued every 30 minutes, with the page automatically refreshed every 10 minutes)

About weather observations | Map of weather stations | Latest weather observations for NSW | Other Formats
Station Details ID: 065111 Name: COWRA AIRPORT AWS Lat: -33.84 Lon: 148.65 Height: 300.4 m
Data from the previous 72 hours. | See also: Recent months at Cowra
Date/Time
EST
Temp
°C
App
Temp
°C
Dew
Point
°C
Rel
Hum
%
Delta-T
°C
Wind Press
QNH
hPa
Press
MSL
hPa
Rain since
9am
mm
Dir  Spd
km/h
Gust
km/h
Spd
kts
Gust
kts
26/08:00pm 9.2 7.0 6.3 82 1.4 N 7 7 4 4 1015.9 - 0.0
26/07:30pm 9.2 6.6 6.1 81 1.4 N 9 9 5 5 1016.1 - 0.0
26/07:00pm 9.5 7.2 5.9 78 1.7 N 7 9 4 5 1016.0 - 0.0
26/06:30pm 9.5 6.8 5.5 76 1.8 N 9 11 5 6 1015.9 - 0.0
26/06:00pm 9.9 8.2 5.9 76 1.9 NNW 4 9 2 5 1015.8 1016.3 0.0
26/05:30pm 10.1 7.7 5.3 72 2.2 NW 7 9 4 5 1015.7 - 0.0
26/05:00pm 10.4 7.6 5.2 70 2.4 WNW 9 13 5 7 1015.5 - 0.0
26/04:30pm 10.5 7.0 5.3 70 2.4 WNW 13 19 7 10 1015.7 - 0.0
26/04:00pm 10.8 6.4 4.9 67 2.7 WNW 17 22 9 12 1015.8 - 0.0
26/03:30pm 11.0 6.6 4.7 65 2.9 WNW 17 22 9 12 1015.8 - 0.0
26/03:00pm 11.8 7.1 5.0 63 3.2 WNW 19 30 10 16 1016.0 1016.4 0.0
26/02:30pm 11.7 6.6 4.2 60 3.4 WNW 20 30 11 16 1016.0 - 0.0
26/02:00pm 11.8 6.4 4.5 61 3.4 NW 22 30 12 16 1016.1 - 0.0
26/01:30pm 11.3 5.7 3.6 59 3.5 WNW 22 33 12 18 1016.2 - 0.0
26/01:00pm 12.3 7.3 4.8 60 3.5 NW 20 28 11 15 1016.4 - 0.0
26/12:30pm 12.2 7.4 4.4 59 3.6 NW 19 26 10 14 1016.7 - 0.0
26/12:00pm 11.8 8.0 4.1 59 3.5 WNW 13 20 7 11 1017.3 1017.7 0.0
26/11:30am 11.7 8.0 4.7 62 3.2 NW 13 19 7 10 1017.6 - 0.0
26/11:00am 12.0 9.1 6.7 70 2.6 NNW 11 17 6 9 1018.0 - 0.0
26/10:30am 10.4 7.7 5.6 72 2.2 NW 9 15 5 8 1018.4 - 0.0
26/10:00am 10.3 6.9 5.7 73 2.2 NW 13 19 7 10 1018.7 - 0.0
26/09:30am 9.6 5.8 5.8 77 1.8 NW 15 19 8 10 1018.8 - 0.0
26/09:00am 9.2 5.9 6.3 82 1.4 NNW 13 17 7 9 1018.7 1019.2 0.0
26/08:30am 8.4 5.4 6.0 85 1.1 NNW 11 17 6 9 1018.8 - 0.0
26/08:00am 7.9 5.2 5.7 86 1.0 NNW 9 13 5 7 1018.7 - 0.0
26/07:30am 7.7 4.6 5.7 87 0.9 NNW 11 15 6 8 1018.6 - 0.0
26/07:00am 7.6 4.4 5.2 85 1.1 NNW 11 17 6 9 1018.4 - 0.0
26/06:30am 7.6 4.9 5.4 86 1.0 NNW 9 13 5 7 1018.2 - 0.0
26/06:00am 8.3 4.7 5.2 81 1.4 NW 13 20 7 11 1017.9 1018.3 0.0
26/05:30am 8.4 4.5 5.2 80 1.5 NW 15 22 8 12 1017.5 - 0.0
26/05:00am 8.4 4.5 5.3 81 1.4 NW 15 20 8 11 1017.0 - 0.0
26/04:30am 8.5 3.8 5.3 80 1.5 NW 19 24 10 13 1016.7 - 0.0
26/04:00am 8.4 3.7 5.3 81 1.4 NNW 19 26 10 14 1016.5 - 0.0
26/03:30am 8.4 3.7 5.3 81 1.4 NNW 19 24 10 13 1016.5 - 0.0
26/03:00am 8.4 3.5 5.3 81 1.4 NNW 20 28 11 15 1016.4 1016.9 0.0
26/02:30am 8.5 2.9 5.3 80 1.5 NNW 24 35 13 19 1016.4 - 0.0
26/02:00am 8.5 3.3 5.4 81 1.4 NNW 22 32 12 17 1016.6 - 0.0
26/01:30am 8.3 3.5 5.4 82 1.3 NNW 20 28 11 15 1016.6 - 0.0
26/01:00am 7.9 3.3 5.4 84 1.1 NNW 19 26 10 14 1016.5 - 0.0
26/12:30am 7.5 3.6 5.5 87 0.9 NNW 15 19 8 10 1016.8 - 0.0
26/12:00am 6.8 3.9 4.6 86 1.0 NNW 9 15 5 8 1017.0 1017.5 0.0
 
Date/Time
EST
Temp
°C
App
Temp
°C
Dew
Point
°C
Rel
Hum
%
Delta-T
°C
Wind Press
QNH
hPa
Press
MSL
hPa
Rain since
9am
mm
Dir  Spd
km/h
Gust
km/h
Spd
kts
Gust
kts
25/11:30pm 6.9 3.7 4.9 87 0.9 NNW 11 15 6 8 1017.4 - 0.0
25/11:00pm 6.5 3.6 4.8 89 0.8 N 9 11 5 6 1017.2 - 0.0
25/10:30pm 6.6 3.7 4.9 89 0.8 N 9 11 5 6 1017.4 - 0.0
25/10:00pm 6.8 4.3 4.8 87 0.9 N 7 7 4 4 1017.4 - 0.0
25/09:30pm 7.1 4.3 5.1 87 0.9 N 9 11 5 6 1017.4 - 0.0
25/09:00pm 7.3 5.1 5.1 86 1.0 N 6 7 3 4 1017.6 1017.9 0.0
25/08:30pm 7.6 4.8 5.2 85 1.1 N 9 11 5 6 1017.3 - 0.0
25/08:00pm 7.8 5.7 5.6 86 1.0 NNE 6 9 3 5 1017.4 - 0.0
25/07:30pm 8.2 5.2 6.0 86 1.0 N 11 15 6 8 1017.2 - 0.0
25/07:00pm 8.2 4.9 6.2 87 0.9 N 13 17 7 9 1016.6 - 0.0
25/06:30pm 8.1 3.4 6.1 87 0.9 N 20 26 11 14 1016.1 - 0.0
25/06:00pm 8.1 3.0 5.9 86 1.0 N 22 30 12 16 1016.1 1016.6 0.0
25/05:30pm 8.5 4.0 6.0 84 1.2 NNW 19 26 10 14 1016.1 - 0.0
25/05:00pm 8.7 4.2 6.0 83 1.3 NNW 19 26 10 14 1015.9 - 0.0
25/04:30pm 8.9 4.1 5.8 81 1.4 NW 20 30 11 16 1015.8 - 0.0
25/04:00pm 9.4 5.3 6.1 80 1.5 NW 17 26 9 14 1015.6 - 0.0
25/03:30pm 9.2 4.7 5.9 80 1.5 NNW 19 28 10 15 1015.7 - 0.0
25/03:00pm 9.4 4.8 6.3 81 1.5 NW 20 32 11 17 1015.7 1016.2 0.0
25/02:30pm 9.5 4.5 6.6 82 1.4 NW 22 35 12 19 1015.5 - 0.0
25/02:00pm 9.4 5.2 5.9 79 1.6 NW 17 24 9 13 1015.4 - 0.0
25/01:30pm 9.3 4.7 6.4 82 1.4 NW 20 30 11 16 1015.7 - 0.0
25/01:00pm 9.7 4.5 5.5 75 1.9 NW 22 32 12 17 1015.9 - 0.0
25/12:30pm 10.1 5.0 5.9 75 2.0 NW 22 30 12 16 1016.2 - 0.0
25/12:00pm 9.6 4.8 5.6 76 1.9 NNW 20 28 11 15 1016.5 1017.0 0.0
25/11:30am 10.0 5.4 5.8 75 2.0 NW 19 26 10 14 1016.7 - 0.0
25/11:00am 9.7 5.0 5.3 74 2.0 WNW 19 30 10 16 1016.9 - 0.0
25/10:30am 8.9 4.3 5.5 79 1.6 NW 19 24 10 13 1017.0 - 0.0
25/10:00am 8.5 4.3 5.6 82 1.3 NW 17 22 9 12 1016.7 - 0.0
25/09:30am 7.7 3.5 5.8 88 0.9 NNW 17 20 9 11 1016.6 - 0.0
25/09:00am 7.2 3.0 5.8 91 0.6 NNW 17 20 9 11 1016.2 1016.7 4.0
25/08:30am 7.2 3.8 5.7 90 0.7 NNW 13 20 7 11 1015.9 - 4.0
25/08:00am 6.8 3.6 5.3 90 0.7 NW 11 15 6 8 1015.6 - 4.0
25/07:30am 6.6 2.7 5.2 91 0.6 NW 15 20 8 11 1015.1 - 4.0
25/07:00am 6.3 2.0 5.4 94 0.4 NNW 17 22 9 12 1014.7 - 4.0
25/06:30am 6.5 2.3 5.5 93 0.5 NNW 17 24 9 13 1014.4 - 4.0
25/06:00am 6.8 1.5 5.1 89 0.8 NW 22 30 12 16 1014.0 1014.4 4.0
25/05:30am 7.2 2.5 5.2 87 0.9 WNW 19 26 10 14 1013.4 - 4.0
25/05:00am 6.4 2.6 6.0 97 0.2 NNW 15 20 8 11 1013.0 - 4.0
25/04:30am 6.1 3.1 5.8 98 0.1 NNW 11 15 6 8 1012.9 - 4.0
25/04:00am 6.0 2.6 5.9 99 0.0 N 13 17 7 9 1012.6 - 3.8
25/03:30am 5.4 1.8 5.1 98 0.1 N 13 15 7 8 1012.7 - 3.8
25/03:00am 5.6 1.6 5.0 96 0.3 NNW 15 19 8 10 1013.0 1013.5 3.8
25/02:30am 6.2 2.5 4.4 88 0.8 NNW 13 17 7 9 1013.2 - 3.8
25/02:00am 6.8 3.0 4.1 83 1.2 NNW 13 17 7 9 1013.5 - 3.8
25/01:30am 7.3 3.2 4.3 81 1.3 NW 15 20 8 11 1013.3 - 3.8
25/01:00am 7.5 3.9 5.1 85 1.1 WNW 13 19 7 10 1013.3 - 3.8
25/12:30am 8.0 3.2 5.8 86 1.0 WNW 20 30 11 16 1013.0 - 3.8
25/12:00am 7.9 4.4 7.0 94 0.4 NW 15 24 8 13 1012.9 1013.4 3.4
 
Date/Time
EST
Temp
°C
App
Temp
°C
Dew
Point
°C
Rel
Hum
%
Delta-T
°C
Wind Press
QNH
hPa
Press
MSL
hPa
Rain since
9am
mm
Dir  Spd
km/h
Gust
km/h
Spd
kts
Gust
kts
24/11:30pm 7.7 4.2 7.1 96 0.3 NNW 15 20 8 11 1012.8 - 3.4
24/11:00pm 7.1 3.3 5.7 91 0.6 N 15 22 8 12 1012.6 - 3.2
24/10:30pm 7.4 2.6 5.4 87 0.9 NNW 20 37 11 20 1012.4 - 3.2
24/10:19pm 7.8 1.5 5.8 87 0.9 NW 28 44 15 24 1013.2 - 2.8
24/10:00pm 8.1 4.4 6.4 89 0.8 WNW 15 22 8 12 1013.3 - 1.4
24/09:30pm 8.3 4.9 5.9 85 1.1 NW 13 17 7 9 1013.0 - 0.6
24/09:00pm 8.2 6.1 5.8 85 1.1 WNW 6 11 3 6 1012.4 1012.9 0.4
24/08:30pm 8.4 4.6 5.9 84 1.2 N 15 22 8 12 1012.7 - 0.4
24/08:00pm 8.3 4.8 5.4 82 1.3 N 13 17 7 9 1012.6 - 0.2
24/07:30pm 8.2 4.0 5.7 84 1.1 N 17 20 9 11 1012.6 - 0.2
24/07:00pm 8.9 4.9 5.1 77 1.7 N 15 20 8 11 1012.5 - 0.0
24/06:30pm 8.5 5.3 5.3 80 1.5 N 11 15 6 8 1012.5 - 0.0
24/06:00pm 9.2 5.6 4.8 74 2.0 N 13 22 7 12 1012.2 1012.7 0.0
24/05:30pm 9.3 6.0 4.5 72 2.2 NNW 11 17 6 9 1012.4 - 0.0
24/05:00pm 9.5 5.4 4.3 70 2.3 NNW 15 22 8 12 1012.4 - 0.0
24/04:30pm 9.8 5.7 4.4 69 2.4 NNW 15 20 8 11 1012.3 - 0.0
24/04:00pm 10.0 5.5 4.2 67 2.6 NNW 17 22 9 12 1012.3 - 0.0
24/03:30pm 10.1 5.9 4.0 66 2.7 N 15 20 8 11 1012.3 - 0.0
24/03:00pm 10.4 6.2 3.7 63 3.0 NNW 15 22 8 12 1012.3 1012.8 0.0
24/02:30pm 10.2 5.1 3.3 62 3.1 N 19 28 10 15 1013.0 - 0.0
24/02:00pm 10.2 5.0 2.6 59 3.3 NNW 19 24 10 13 1013.5 - 0.0
24/01:30pm 10.0 5.0 1.4 55 3.6 NW 17 26 9 14 1014.0 - 0.0
24/01:00pm 9.6 5.3 3.1 64 2.8 N 15 20 8 11 1014.2 - 0.0
24/12:30pm 9.0 4.7 3.0 66 2.6 N 15 20 8 11 1014.9 - 0.0
24/12:00pm 9.1 5.6 3.3 67 2.5 NNW 11 17 6 9 1016.2 1016.7 0.0
24/11:30am 8.5 4.6 3.6 71 2.2 N 13 20 7 11 1016.3 - 0.0
24/11:00am 7.4 3.9 3.6 77 1.7 N 11 15 6 8 1016.9 - 0.0
24/10:30am 6.2 3.3 4.4 88 0.8 N 9 11 5 6 1016.9 - 0.0
24/10:00am 4.0 1.1 2.7 91 0.5 N 7 9 4 5 1017.6 - 0.0
24/09:30am 3.1 1.4 2.1 93 0.4 CALM 0 0 0 0 1017.7 - 0.0
24/09:00am 2.6 1.0 2.3 98 0.1 CALM 0 0 0 0 1017.3 1017.7 0.0
24/08:30am 1.8 0.1 1.7 99 0.0 CALM 0 0 0 0 1017.3 - 0.0
24/08:00am 0.9 -1.0 0.8 99 0.0 CALM 0 0 0 0 1016.8 - 0.0
24/07:30am 0.2 -1.8 -0.1 98 0.1 CALM 0 0 0 0 1016.4 - 0.0
24/07:00am 0.0 -2.0 -0.4 97 0.1 CALM 0 0 0 0 1015.7 - 0.0
24/06:30am -0.1 -2.2 -0.7 96 0.2 CALM 0 0 0 0 1015.5 - 0.0
24/06:00am -0.1 -2.2 -0.8 95 0.2 CALM 0 0 0 0 1015.4 1015.9 0.0
24/05:30am 0.3 -3.1 -0.4 95 0.3 ESE 7 9 4 5 1015.1 - 0.0
24/05:00am 1.1 -0.8 0.4 95 0.3 CALM 0 0 0 0 1015.1 - 0.0
24/04:30am 1.4 -1.6 0.7 95 0.3 N 6 7 3 4 1015.2 - 0.0
24/04:00am 1.7 -0.2 0.7 93 0.4 CALM 0 0 0 0 1015.3 - 0.0
24/03:30am 2.0 0.1 0.8 92 0.5 CALM 0 0 0 0 1015.3 - 0.0
24/03:00am 2.2 0.4 0.9 91 0.5 CALM 0 0 0 0 1015.2 1015.7 0.0
24/02:30am 2.1 -1.1 0.6 90 0.6 NNE 7 9 4 5 1015.2 - 0.0
24/02:00am 2.7 -0.4 1.1 89 0.6 N 7 9 4 5 1015.7 - 0.0
24/01:30am 2.6 -1.0 0.5 86 0.8 N 9 11 5 6 1015.6 - 0.0
24/01:00am 2.9 -0.8 -0.2 80 1.2 N 9 11 5 6 1016.0 - 0.0
24/12:30am 3.9 0.1 -0.5 73 1.7 NW 9 13 5 7 1016.0 - 0.0
24/12:00am 5.3 1.1 -0.9 64 2.4 NW 11 15 6 8 1016.2 1016.7 0.0
 
Date/Time
EST
Temp
°C
App
Temp
°C
Dew
Point
°C
Rel
Hum
%
Delta-T
°C
Wind Press
QNH
hPa
Press
MSL
hPa
Rain since
9am
mm
Dir  Spd
km/h
Gust
km/h
Spd
kts
Gust
kts
23/11:30pm 4.6 1.4 -0.6 69 2.0 NNW 6 15 3 8 1016.2 - 0.0
23/11:00pm 4.8 0.2 -0.8 67 2.1 W 13 15 7 8 1016.4 - 0.0
23/10:30pm 5.4 2.2 -0.8 64 2.4 WNW 6 9 3 5 1016.4 - 0.0
23/10:00pm 5.3 2.2 -0.1 68 2.1 NNW 6 9 3 5 1016.3 - 0.0
23/09:30pm 5.3 0.9 0.1 69 2.0 W 13 17 7 9 1016.2 - 0.0
23/09:00pm 6.5 2.1 0.4 65 2.4 W 13 20 7 11 1015.8 1016.3 0.0
23/08:30pm 6.7 2.0 1.2 68 2.2 WSW 15 24 8 13 1015.4 - 0.0

Other Formats:

Comma delimited format used in spreadsheet applications
http://www.bom.gov.au/fwo/IDN60801/IDN60801.95721.axf

JavaScript Object Notation format (JSON) in row-major order
http://www.bom.gov.au/fwo/IDN60801/IDN60801.95721.json